sensor_id;sensor_type;location;lat;lon;timestamp;temperature;humidity
14555;DHT22;7364;50.870;4.722;2024-02-21T00:00:38;10.20;99.90
14555;DHT22;7364;50.870;4.722;2024-02-21T00:03:07;10.30;99.90
14555;DHT22;7364;50.870;4.722;2024-02-21T00:05:34;10.30;99.90
14555;DHT22;7364;50.870;4.722;2024-02-21T00:08:02;10.40;99.90
14555;DHT22;7364;50.870;4.722;2024-02-21T00:10:31;10.50;99.90
14555;DHT22;7364;50.870;4.722;2024-02-21T00:12:58;10.50;99.90
14555;DHT22;7364;50.870;4.722;2024-02-21T00:15:26;10.60;99.90
14555;DHT22;7364;50.870;4.722;2024-02-21T00:17:53;10.90;99.90
14555;DHT22;7364;50.870;4.722;2024-02-21T00:20:20;10.90;99.90
14555;DHT22;7364;50.870;4.722;2024-02-21T00:22:51;10.80;99.90
14555;DHT22;7364;50.870;4.722;2024-02-21T00:25:18;10.60;99.90
14555;DHT22;7364;50.870;4.722;2024-02-21T00:27:46;10.70;99.90
14555;DHT22;7364;50.870;4.722;2024-02-21T00:30:14;10.70;99.90
14555;DHT22;7364;50.870;4.722;2024-02-21T00:32:41;10.90;99.90
14555;DHT22;7364;50.870;4.722;2024-02-21T00:35:08;11.00;99.90
14555;DHT22;7364;50.870;4.722;2024-02-21T00:37:35;11.10;99.90
14555;DHT22;7364;50.870;4.722;2024-02-21T00:40:03;11.00;99.90
14555;DHT22;7364;50.870;4.722;2024-02-21T00:42:31;11.10;99.90
14555;DHT22;7364;50.870;4.722;2024-02-21T00:45:00;11.00;99.90
14555;DHT22;7364;50.870;4.722;2024-02-21T00:47:27;11.00;99.90
14555;DHT22;7364;50.870;4.722;2024-02-21T00:49:54;11.10;99.90
14555;DHT22;7364;50.870;4.722;2024-02-21T00:52:21;11.10;99.90
14555;DHT22;7364;50.870;4.722;2024-02-21T00:54:48;11.10;99.90
14555;DHT22;7364;50.870;4.722;2024-02-21T00:57:15;10.90;99.90
14555;DHT22;7364;50.870;4.722;2024-02-21T00:59:42;11.00;99.90
14555;DHT22;7364;50.870;4.722;2024-02-21T01:02:11;11.00;99.90
14555;DHT22;7364;50.870;4.722;2024-02-21T01:04:38;11.10;99.90
14555;DHT22;7364;50.870;4.722;2024-02-21T01:07:05;11.20;99.90
14555;DHT22;7364;50.870;4.722;2024-02-21T01:09:32;11.20;99.90
14555;DHT22;7364;50.870;4.722;2024-02-21T01:11:59;11.00;99.90
14555;DHT22;7364;50.870;4.722;2024-02-21T01:14:26;11.00;99.90
14555;DHT22;7364;50.870;4.722;2024-02-21T01:16:53;11.10;99.90
14555;DHT22;7364;50.870;4.722;2024-02-21T01:19:22;11.20;99.90
14555;DHT22;7364;50.870;4.722;2024-02-21T01:21:50;11.20;99.90
14555;DHT22;7364;50.870;4.722;2024-02-21T01:24:18;11.00;99.90
14555;DHT22;7364;50.870;4.722;2024-02-21T01:26:45;10.90;99.90
14555;DHT22;7364;50.870;4.722;2024-02-21T01:29:12;10.80;99.90
14555;DHT22;7364;50.870;4.722;2024-02-21T01:31:40;10.80;99.90
14555;DHT22;7364;50.870;4.722;2024-02-21T01:34:07;10.80;99.90
14555;DHT22;7364;50.870;4.722;2024-02-21T01:36:35;10.80;99.90
14555;DHT22;7364;50.870;4.722;2024-02-21T01:39:07;10.90;99.90
14555;DHT22;7364;50.870;4.722;2024-02-21T01:41:34;10.70;99.90
14555;DHT22;7364;50.870;4.722;2024-02-21T01:44:01;10.50;99.90
14555;DHT22;7364;50.870;4.722;2024-02-21T01:46:28;10.50;99.90
14555;DHT22;7364;50.870;4.722;2024-02-21T01:48:57;10.50;99.90
14555;DHT22;7364;50.870;4.722;2024-02-21T01:51:24;10.50;99.90
14555;DHT22;7364;50.870;4.722;2024-02-21T01:53:53;10.50;99.90
14555;DHT22;7364;50.870;4.722;2024-02-21T01:56:22;10.40;99.90
14555;DHT22;7364;50.870;4.722;2024-02-21T01:58:50;10.30;99.90
14555;DHT22;7364;50.870;4.722;2024-02-21T02:01:17;10.30;99.90
14555;DHT22;7364;50.870;4.722;2024-02-21T02:03:45;10.30;99.90
14555;DHT22;7364;50.870;4.722;2024-02-21T02:06:12;10.30;99.90
14555;DHT22;7364;50.870;4.722;2024-02-21T02:08:40;10.40;99.90
14555;DHT22;7364;50.870;4.722;2024-02-21T02:11:09;10.40;99.90
14555;DHT22;7364;50.870;4.722;2024-02-21T02:13:36;10.50;99.90
14555;DHT22;7364;50.870;4.722;2024-02-21T02:16:04;10.40;99.90
14555;DHT22;7364;50.870;4.722;2024-02-21T02:18:32;10.20;99.90
14555;DHT22;7364;50.870;4.722;2024-02-21T02:21:00;10.10;99.90
14555;DHT22;7364;50.870;4.722;2024-02-21T02:23:28;10.20;99.90
14555;DHT22;7364;50.870;4.722;2024-02-21T02:25:57;10.40;99.90
14555;DHT22;7364;50.870;4.722;2024-02-21T02:28:24;10.40;99.90
14555;DHT22;7364;50.870;4.722;2024-02-21T02:30:52;10.30;99.90
14555;DHT22;7364;50.870;4.722;2024-02-21T02:33:19;10.40;99.90
14555;DHT22;7364;50.870;4.722;2024-02-21T02:35:46;10.50;99.90
14555;DHT22;7364;50.870;4.722;2024-02-21T02:38:14;10.50;99.90
14555;DHT22;7364;50.870;4.722;2024-02-21T02:40:43;10.50;99.90
14555;DHT22;7364;50.870;4.722;2024-02-21T02:43:12;10.50;99.90
14555;DHT22;7364;50.870;4.722;2024-02-21T02:45:39;10.50;99.90
14555;DHT22;7364;50.870;4.722;2024-02-21T02:48:07;10.60;99.90
14555;DHT22;7364;50.870;4.722;2024-02-21T02:50:34;10.60;99.90
14555;DHT22;7364;50.870;4.722;2024-02-21T02:53:02;10.60;99.90
14555;DHT22;7364;50.870;4.722;2024-02-21T02:55:29;10.70;99.90
14555;DHT22;7364;50.870;4.722;2024-02-21T02:57:58;10.80;99.90
14555;DHT22;7364;50.870;4.722;2024-02-21T03:00:25;10.90;99.90
14555;DHT22;7364;50.870;4.722;2024-02-21T03:02:53;11.10;99.90
14555;DHT22;7364;50.870;4.722;2024-02-21T03:05:21;11.10;99.90
14555;DHT22;7364;50.870;4.722;2024-02-21T03:07:49;11.10;99.90
14555;DHT22;7364;50.870;4.722;2024-02-21T03:10:17;11.10;99.90
14555;DHT22;7364;50.870;4.722;2024-02-21T03:12:45;11.00;99.90
14555;DHT22;7364;50.870;4.722;2024-02-21T03:15:14;10.70;99.90
14555;DHT22;7364;50.870;4.722;2024-02-21T03:17:41;10.60;99.90
14555;DHT22;7364;50.870;4.722;2024-02-21T03:20:09;10.70;99.90
14555;DHT22;7364;50.870;4.722;2024-02-21T03:22:37;10.80;99.90
14555;DHT22;7364;50.870;4.722;2024-02-21T03:25:05;10.60;99.90
14555;DHT22;7364;50.870;4.722;2024-02-21T03:27:33;10.50;99.90
14555;DHT22;7364;50.870;4.722;2024-02-21T03:30:00;10.30;99.90
14555;DHT22;7364;50.870;4.722;2024-02-21T03:32:29;10.30;99.90
14555;DHT22;7364;50.870;4.722;2024-02-21T03:34:57;10.40;99.90
14555;DHT22;7364;50.870;4.722;2024-02-21T03:37:24;10.30;99.90
14555;DHT22;7364;50.870;4.722;2024-02-21T03:39:51;10.20;99.90
14555;DHT22;7364;50.870;4.722;2024-02-21T03:42:18;10.30;99.90
14555;DHT22;7364;50.870;4.722;2024-02-21T03:44:45;10.20;99.90
14555;DHT22;7364;50.870;4.722;2024-02-21T03:47:13;10.20;99.90
14555;DHT22;7364;50.870;4.722;2024-02-21T03:49:41;10.10;99.90
14555;DHT22;7364;50.870;4.722;2024-02-21T03:52:08;10.00;99.90
14555;DHT22;7364;50.870;4.722;2024-02-21T03:54:36;10.10;99.90
14555;DHT22;7364;50.870;4.722;2024-02-21T03:57:05;10.10;99.90
14555;DHT22;7364;50.870;4.722;2024-02-21T03:59:32;10.00;99.90
14555;DHT22;7364;50.870;4.722;2024-02-21T04:01:59;9.90;99.90
14555;DHT22;7364;50.870;4.722;2024-02-21T04:04:26;10.10;99.90
14555;DHT22;7364;50.870;4.722;2024-02-21T04:06:55;10.10;99.90
14555;DHT22;7364;50.870;4.722;2024-02-21T04:09:22;10.10;99.90
14555;DHT22;7364;50.870;4.722;2024-02-21T04:11:49;10.00;99.90
14555;DHT22;7364;50.870;4.722;2024-02-21T04:14:16;10.10;99.90
14555;DHT22;7364;50.870;4.722;2024-02-21T04:16:44;10.20;99.90
14555;DHT22;7364;50.870;4.722;2024-02-21T04:19:11;10.10;99.90
14555;DHT22;7364;50.870;4.722;2024-02-21T04:21:38;10.00;99.90
14555;DHT22;7364;50.870;4.722;2024-02-21T04:24:07;10.00;99.90
14555;DHT22;7364;50.870;4.722;2024-02-21T04:26:34;10.00;99.90
14555;DHT22;7364;50.870;4.722;2024-02-21T04:29:01;10.10;99.90
14555;DHT22;7364;50.870;4.722;2024-02-21T04:31:29;10.30;99.90
14555;DHT22;7364;50.870;4.722;2024-02-21T04:33:56;10.30;99.90
14555;DHT22;7364;50.870;4.722;2024-02-21T04:36:23;10.20;99.90
14555;DHT22;7364;50.870;4.722;2024-02-21T04:38:50;10.30;99.90
14555;DHT22;7364;50.870;4.722;2024-02-21T04:41:19;10.30;99.90
14555;DHT22;7364;50.870;4.722;2024-02-21T04:43:46;10.10;99.90
14555;DHT22;7364;50.870;4.722;2024-02-21T04:46:13;10.10;99.90
14555;DHT22;7364;50.870;4.722;2024-02-21T04:48:41;10.10;99.90
14555;DHT22;7364;50.870;4.722;2024-02-21T04:51:09;10.10;99.90
14555;DHT22;7364;50.870;4.722;2024-02-21T04:53:37;10.10;99.90
14555;DHT22;7364;50.870;4.722;2024-02-21T04:56:05;10.00;99.90
14555;DHT22;7364;50.870;4.722;2024-02-21T04:58:37;10.10;99.90
14555;DHT22;7364;50.870;4.722;2024-02-21T05:01:04;9.90;99.90
14555;DHT22;7364;50.870;4.722;2024-02-21T05:03:33;10.00;99.90
14555;DHT22;7364;50.870;4.722;2024-02-21T05:06:00;9.90;99.90
14555;DHT22;7364;50.870;4.722;2024-02-21T05:08:27;9.90;99.90
14555;DHT22;7364;50.870;4.722;2024-02-21T05:10:55;9.90;99.90
14555;DHT22;7364;50.870;4.722;2024-02-21T05:13:22;9.90;99.90
14555;DHT22;7364;50.870;4.722;2024-02-21T05:15:51;9.90;99.90
14555;DHT22;7364;50.870;4.722;2024-02-21T05:18:18;9.80;99.90
14555;DHT22;7364;50.870;4.722;2024-02-21T05:20:46;9.70;99.90
14555;DHT22;7364;50.870;4.722;2024-02-21T05:23:13;9.70;99.90
14555;DHT22;7364;50.870;4.722;2024-02-21T05:25:41;9.80;99.90
14555;DHT22;7364;50.870;4.722;2024-02-21T05:28:08;9.80;99.90
14555;DHT22;7364;50.870;4.722;2024-02-21T05:30:35;9.80;99.90
14555;DHT22;7364;50.870;4.722;2024-02-21T05:33:07;9.80;99.90
14555;DHT22;7364;50.870;4.722;2024-02-21T05:35:35;9.80;99.90
14555;DHT22;7364;50.870;4.722;2024-02-21T05:38:02;9.80;99.90
14555;DHT22;7364;50.870;4.722;2024-02-21T05:40:37;9.80;99.90
14555;DHT22;7364;50.870;4.722;2024-02-21T05:43:04;9.70;99.90
14555;DHT22;7364;50.870;4.722;2024-02-21T05:45:32;9.70;99.90
14555;DHT22;7364;50.870;4.722;2024-02-21T05:47:59;9.70;99.90
14555;DHT22;7364;50.870;4.722;2024-02-21T05:50:28;9.70;99.90
14555;DHT22;7364;50.870;4.722;2024-02-21T05:52:55;9.70;99.90
14555;DHT22;7364;50.870;4.722;2024-02-21T05:55:23;9.70;99.90
14555;DHT22;7364;50.870;4.722;2024-02-21T05:57:53;9.60;99.90
14555;DHT22;7364;50.870;4.722;2024-02-21T06:00:21;9.70;99.90
14555;DHT22;7364;50.870;4.722;2024-02-21T06:02:48;9.60;99.90
14555;DHT22;7364;50.870;4.722;2024-02-21T06:05:15;9.60;99.90
14555;DHT22;7364;50.870;4.722;2024-02-21T06:07:44;9.60;99.90
14555;DHT22;7364;50.870;4.722;2024-02-21T06:10:11;9.60;99.90
14555;DHT22;7364;50.870;4.722;2024-02-21T06:12:39;9.60;99.90
14555;DHT22;7364;50.870;4.722;2024-02-21T06:15:07;9.60;99.90
14555;DHT22;7364;50.870;4.722;2024-02-21T06:17:34;9.70;99.90
14555;DHT22;7364;50.870;4.722;2024-02-21T06:20:02;9.70;99.90
14555;DHT22;7364;50.870;4.722;2024-02-21T06:22:30;9.60;99.90
14555;DHT22;7364;50.870;4.722;2024-02-21T06:24:59;9.60;99.90
14555;DHT22;7364;50.870;4.722;2024-02-21T06:27:26;9.60;99.90
14555;DHT22;7364;50.870;4.722;2024-02-21T06:29:54;9.60;99.90
14555;DHT22;7364;50.870;4.722;2024-02-21T06:32:21;9.60;99.90
14555;DHT22;7364;50.870;4.722;2024-02-21T06:34:48;9.60;99.90
14555;DHT22;7364;50.870;4.722;2024-02-21T06:37:16;9.60;99.90
14555;DHT22;7364;50.870;4.722;2024-02-21T06:39:43;9.60;99.90
14555;DHT22;7364;50.870;4.722;2024-02-21T06:42:12;9.60;99.90
14555;DHT22;7364;50.870;4.722;2024-02-21T06:44:39;9.60;99.90
14555;DHT22;7364;50.870;4.722;2024-02-21T06:47:07;9.60;99.90
14555;DHT22;7364;50.870;4.722;2024-02-21T06:49:34;9.60;99.90
14555;DHT22;7364;50.870;4.722;2024-02-21T06:52:03;9.70;99.90
14555;DHT22;7364;50.870;4.722;2024-02-21T06:54:31;9.70;99.90
14555;DHT22;7364;50.870;4.722;2024-02-21T06:56:58;9.70;99.90
14555;DHT22;7364;50.870;4.722;2024-02-21T06:59:27;9.70;99.90
14555;DHT22;7364;50.870;4.722;2024-02-21T07:01:54;9.70;99.90
14555;DHT22;7364;50.870;4.722;2024-02-21T07:04:22;9.70;99.90
14555;DHT22;7364;50.870;4.722;2024-02-21T07:06:52;9.70;99.90
14555;DHT22;7364;50.870;4.722;2024-02-21T07:09:19;9.70;99.90
14555;DHT22;7364;50.870;4.722;2024-02-21T07:11:46;9.70;99.90
14555;DHT22;7364;50.870;4.722;2024-02-21T07:14:14;9.70;99.90
14555;DHT22;7364;50.870;4.722;2024-02-21T07:16:43;9.70;99.90
14555;DHT22;7364;50.870;4.722;2024-02-21T07:19:10;9.80;99.90
14555;DHT22;7364;50.870;4.722;2024-02-21T07:21:38;9.80;99.90
14555;DHT22;7364;50.870;4.722;2024-02-21T07:24:07;9.70;99.90
14555;DHT22;7364;50.870;4.722;2024-02-21T07:26:34;9.70;99.90
14555;DHT22;7364;50.870;4.722;2024-02-21T07:29:01;9.70;99.90
14555;DHT22;7364;50.870;4.722;2024-02-21T07:31:29;9.70;99.90
14555;DHT22;7364;50.870;4.722;2024-02-21T07:33:58;9.70;99.90
14555;DHT22;7364;50.870;4.722;2024-02-21T07:36:29;9.60;99.90
14555;DHT22;7364;50.870;4.722;2024-02-21T07:38:56;9.70;99.90
14555;DHT22;7364;50.870;4.722;2024-02-21T07:41:24;9.70;99.90
14555;DHT22;7364;50.870;4.722;2024-02-21T07:43:52;9.60;99.90
14555;DHT22;7364;50.870;4.722;2024-02-21T07:46:19;9.70;99.90
14555;DHT22;7364;50.870;4.722;2024-02-21T07:48:47;9.70;99.90
14555;DHT22;7364;50.870;4.722;2024-02-21T07:51:16;9.60;99.90
14555;DHT22;7364;50.870;4.722;2024-02-21T07:53:45;9.60;99.90
14555;DHT22;7364;50.870;4.722;2024-02-21T07:56:14;9.60;99.90
14555;DHT22;7364;50.870;4.722;2024-02-21T07:58:42;9.60;99.90
14555;DHT22;7364;50.870;4.722;2024-02-21T08:01:10;9.60;99.90
14555;DHT22;7364;50.870;4.722;2024-02-21T08:03:38;9.80;99.90
14555;DHT22;7364;50.870;4.722;2024-02-21T08:06:06;9.80;99.90
14555;DHT22;7364;50.870;4.722;2024-02-21T08:08:40;9.70;99.90
14555;DHT22;7364;50.870;4.722;2024-02-21T08:11:07;9.70;99.90
14555;DHT22;7364;50.870;4.722;2024-02-21T08:13:35;9.60;99.90
14555;DHT22;7364;50.870;4.722;2024-02-21T08:16:03;9.60;99.90
14555;DHT22;7364;50.870;4.722;2024-02-21T08:18:30;9.60;99.90
14555;DHT22;7364;50.870;4.722;2024-02-21T08:20:58;9.60;99.90
14555;DHT22;7364;50.870;4.722;2024-02-21T08:23:25;9.60;99.90
14555;DHT22;7364;50.870;4.722;2024-02-21T08:25:53;9.60;99.90
14555;DHT22;7364;50.870;4.722;2024-02-21T08:28:21;9.70;99.90
14555;DHT22;7364;50.870;4.722;2024-02-21T08:30:48;9.70;99.90
14555;DHT22;7364;50.870;4.722;2024-02-21T08:33:16;9.70;99.90
14555;DHT22;7364;50.870;4.722;2024-02-21T08:35:43;9.70;99.90
14555;DHT22;7364;50.870;4.722;2024-02-21T08:38:11;9.70;99.90
14555;DHT22;7364;50.870;4.722;2024-02-21T08:40:38;9.60;99.90
14555;DHT22;7364;50.870;4.722;2024-02-21T08:43:07;9.60;99.90
14555;DHT22;7364;50.870;4.722;2024-02-21T08:45:34;9.60;99.90
14555;DHT22;7364;50.870;4.722;2024-02-21T08:48:06;9.60;99.90
14555;DHT22;7364;50.870;4.722;2024-02-21T08:50:34;9.70;99.90
14555;DHT22;7364;50.870;4.722;2024-02-21T08:53:02;9.80;99.90
14555;DHT22;7364;50.870;4.722;2024-02-21T08:55:29;9.70;99.90
14555;DHT22;7364;50.870;4.722;2024-02-21T08:57:56;9.80;99.90
14555;DHT22;7364;50.870;4.722;2024-02-21T09:00:25;9.80;99.90
14555;DHT22;7364;50.870;4.722;2024-02-21T09:02:52;9.90;99.90
14555;DHT22;7364;50.870;4.722;2024-02-21T09:05:21;10.00;99.90
14555;DHT22;7364;50.870;4.722;2024-02-21T09:07:50;10.00;99.90
14555;DHT22;7364;50.870;4.722;2024-02-21T09:10:17;10.00;99.90
14555;DHT22;7364;50.870;4.722;2024-02-21T09:12:44;10.20;99.90
14555;DHT22;7364;50.870;4.722;2024-02-21T09:15:11;10.20;99.90
14555;DHT22;7364;50.870;4.722;2024-02-21T09:17:40;10.10;99.90
14555;DHT22;7364;50.870;4.722;2024-02-21T09:20:08;10.20;99.90
14555;DHT22;7364;50.870;4.722;2024-02-21T09:22:37;10.10;99.90
14555;DHT22;7364;50.870;4.722;2024-02-21T09:25:06;10.00;99.90
14555;DHT22;7364;50.870;4.722;2024-02-21T09:27:34;10.10;99.90
14555;DHT22;7364;50.870;4.722;2024-02-21T09:30:01;10.30;99.90
14555;DHT22;7364;50.870;4.722;2024-02-21T09:32:30;10.50;99.90
14555;DHT22;7364;50.870;4.722;2024-02-21T09:35:02;10.40;99.90
14555;DHT22;7364;50.870;4.722;2024-02-21T09:37:29;10.50;99.90
14555;DHT22;7364;50.870;4.722;2024-02-21T09:39:56;10.50;99.90
14555;DHT22;7364;50.870;4.722;2024-02-21T09:42:31;10.50;99.90
14555;DHT22;7364;50.870;4.722;2024-02-21T09:45:08;10.70;99.90
14555;DHT22;7364;50.870;4.722;2024-02-21T09:47:43;10.60;99.90
14555;DHT22;7364;50.870;4.722;2024-02-21T09:50:17;10.70;99.90
14555;DHT22;7364;50.870;4.722;2024-02-21T09:52:45;10.50;99.90
14555;DHT22;7364;50.870;4.722;2024-02-21T09:55:13;10.50;99.90
14555;DHT22;7364;50.870;4.722;2024-02-21T09:57:44;10.50;99.90
14555;DHT22;7364;50.870;4.722;2024-02-21T10:00:13;10.60;99.90
14555;DHT22;7364;50.870;4.722;2024-02-21T10:02:48;10.70;99.90
14555;DHT22;7364;50.870;4.722;2024-02-21T10:05:17;10.70;99.90
14555;DHT22;7364;50.870;4.722;2024-02-21T10:07:45;10.80;99.90
14555;DHT22;7364;50.870;4.722;2024-02-21T10:10:12;10.80;99.90
14555;DHT22;7364;50.870;4.722;2024-02-21T10:12:48;10.80;99.90
14555;DHT22;7364;50.870;4.722;2024-02-21T10:15:20;10.80;99.90
14555;DHT22;7364;50.870;4.722;2024-02-21T10:17:48;10.70;99.90
14555;DHT22;7364;50.870;4.722;2024-02-21T10:20:18;11.00;99.90
14555;DHT22;7364;50.870;4.722;2024-02-21T10:22:46;10.90;99.90
14555;DHT22;7364;50.870;4.722;2024-02-21T10:25:13;11.10;99.90
14555;DHT22;7364;50.870;4.722;2024-02-21T10:27:41;11.30;99.90
14555;DHT22;7364;50.870;4.722;2024-02-21T10:30:14;11.30;99.90
14555;DHT22;7364;50.870;4.722;2024-02-21T10:32:49;11.20;99.90
14555;DHT22;7364;50.870;4.722;2024-02-21T10:35:27;11.20;99.90
14555;DHT22;7364;50.870;4.722;2024-02-21T10:37:55;11.40;99.90
14555;DHT22;7364;50.870;4.722;2024-02-21T10:40:24;11.40;99.90
14555;DHT22;7364;50.870;4.722;2024-02-21T10:42:56;11.30;99.90
14555;DHT22;7364;50.870;4.722;2024-02-21T10:45:30;11.30;99.90
14555;DHT22;7364;50.870;4.722;2024-02-21T10:48:10;11.40;99.90
14555;DHT22;7364;50.870;4.722;2024-02-21T10:50:56;11.40;99.90
14555;DHT22;7364;50.870;4.722;2024-02-21T10:53:34;11.50;99.90
14555;DHT22;7364;50.870;4.722;2024-02-21T10:56:10;11.60;99.90
14555;DHT22;7364;50.870;4.722;2024-02-21T10:58:39;11.60;99.90
14555;DHT22;7364;50.870;4.722;2024-02-21T11:01:08;11.80;99.90
14555;DHT22;7364;50.870;4.722;2024-02-21T11:03:36;11.80;99.90
14555;DHT22;7364;50.870;4.722;2024-02-21T11:06:05;11.90;99.90
14555;DHT22;7364;50.870;4.722;2024-02-21T11:08:34;11.80;99.90
14555;DHT22;7364;50.870;4.722;2024-02-21T11:11:01;11.70;99.90
14555;DHT22;7364;50.870;4.722;2024-02-21T11:13:32;11.80;99.90
14555;DHT22;7364;50.870;4.722;2024-02-21T11:16:09;12.00;99.90
14555;DHT22;7364;50.870;4.722;2024-02-21T11:18:39;12.20;99.90
14555;DHT22;7364;50.870;4.722;2024-02-21T11:21:08;12.10;99.90
14555;DHT22;7364;50.870;4.722;2024-02-21T11:23:35;12.10;99.90
14555;DHT22;7364;50.870;4.722;2024-02-21T11:26:05;12.10;99.90
14555;DHT22;7364;50.870;4.722;2024-02-21T11:28:33;12.30;99.90
14555;DHT22;7364;50.870;4.722;2024-02-21T11:31:13;12.30;99.90
14555;DHT22;7364;50.870;4.722;2024-02-21T11:33:42;12.30;99.90
14555;DHT22;7364;50.870;4.722;2024-02-21T11:36:24;12.40;99.90
14555;DHT22;7364;50.870;4.722;2024-02-21T11:38:51;12.30;99.90
14555;DHT22;7364;50.870;4.722;2024-02-21T11:41:19;12.10;99.90
14555;DHT22;7364;50.870;4.722;2024-02-21T11:43:46;12.10;99.90
14555;DHT22;7364;50.870;4.722;2024-02-21T11:46:15;12.10;99.90
14555;DHT22;7364;50.870;4.722;2024-02-21T11:48:42;12.00;99.90
14555;DHT22;7364;50.870;4.722;2024-02-21T11:51:25;12.00;99.90
14555;DHT22;7364;50.870;4.722;2024-02-21T11:53:53;12.10;99.90
14555;DHT22;7364;50.870;4.722;2024-02-21T11:56:20;12.20;99.90
14555;DHT22;7364;50.870;4.722;2024-02-21T11:58:48;12.00;99.90
14555;DHT22;7364;50.870;4.722;2024-02-21T12:01:16;12.00;99.90
14555;DHT22;7364;50.870;4.722;2024-02-21T12:03:43;12.10;99.90
14555;DHT22;7364;50.870;4.722;2024-02-21T12:06:16;12.20;99.90
14555;DHT22;7364;50.870;4.722;2024-02-21T12:08:48;12.30;99.90
14555;DHT22;7364;50.870;4.722;2024-02-21T12:11:18;12.50;99.90
14555;DHT22;7364;50.870;4.722;2024-02-21T12:13:45;12.20;99.90
14555;DHT22;7364;50.870;4.722;2024-02-21T12:16:15;12.30;99.90
14555;DHT22;7364;50.870;4.722;2024-02-21T12:18:44;12.30;99.90
14555;DHT22;7364;50.870;4.722;2024-02-21T12:21:11;12.30;99.90
14555;DHT22;7364;50.870;4.722;2024-02-21T12:23:39;12.40;99.90
14555;DHT22;7364;50.870;4.722;2024-02-21T12:26:08;12.20;99.90
14555;DHT22;7364;50.870;4.722;2024-02-21T12:28:35;12.20;99.90
14555;DHT22;7364;50.870;4.722;2024-02-21T12:31:03;12.10;99.90
14555;DHT22;7364;50.870;4.722;2024-02-21T12:33:30;12.30;99.90
14555;DHT22;7364;50.870;4.722;2024-02-21T12:35:59;12.20;99.90
14555;DHT22;7364;50.870;4.722;2024-02-21T12:38:26;12.00;99.90
14555;DHT22;7364;50.870;4.722;2024-02-21T12:40:54;12.00;99.90
14555;DHT22;7364;50.870;4.722;2024-02-21T12:43:24;12.10;99.90
14555;DHT22;7364;50.870;4.722;2024-02-21T12:45:51;12.20;99.90
14555;DHT22;7364;50.870;4.722;2024-02-21T12:48:19;12.40;99.90
14555;DHT22;7364;50.870;4.722;2024-02-21T12:50:49;12.60;99.90
14555;DHT22;7364;50.870;4.722;2024-02-21T12:53:16;12.70;99.90
14555;DHT22;7364;50.870;4.722;2024-02-21T12:55:45;12.70;99.90
14555;DHT22;7364;50.870;4.722;2024-02-21T12:58:12;12.70;99.90
14555;DHT22;7364;50.870;4.722;2024-02-21T13:00:41;12.70;99.90
14555;DHT22;7364;50.870;4.722;2024-02-21T13:03:09;12.60;99.90
14555;DHT22;7364;50.870;4.722;2024-02-21T13:05:36;12.50;99.90
14555;DHT22;7364;50.870;4.722;2024-02-21T13:08:05;12.60;99.90
14555;DHT22;7364;50.870;4.722;2024-02-21T13:10:32;12.60;99.90
14555;DHT22;7364;50.870;4.722;2024-02-21T13:13:00;12.60;99.90
14555;DHT22;7364;50.870;4.722;2024-02-21T13:15:28;12.50;99.90
14555;DHT22;7364;50.870;4.722;2024-02-21T13:17:57;12.30;99.90
14555;DHT22;7364;50.870;4.722;2024-02-21T13:20:25;12.10;99.90
14555;DHT22;7364;50.870;4.722;2024-02-21T13:22:54;12.10;99.90
14555;DHT22;7364;50.870;4.722;2024-02-21T13:25:21;12.00;99.90
14555;DHT22;7364;50.870;4.722;2024-02-21T13:27:50;12.10;99.90
14555;DHT22;7364;50.870;4.722;2024-02-21T13:30:17;12.20;99.90
14555;DHT22;7364;50.870;4.722;2024-02-21T13:32:45;12.20;99.90
14555;DHT22;7364;50.870;4.722;2024-02-21T13:35:14;12.10;99.90
14555;DHT22;7364;50.870;4.722;2024-02-21T13:37:42;12.10;99.90
14555;DHT22;7364;50.870;4.722;2024-02-21T13:40:10;12.10;99.90
14555;DHT22;7364;50.870;4.722;2024-02-21T13:42:39;12.10;99.90
14555;DHT22;7364;50.870;4.722;2024-02-21T13:45:07;12.10;99.90
14555;DHT22;7364;50.870;4.722;2024-02-21T13:47:35;12.00;99.90
14555;DHT22;7364;50.870;4.722;2024-02-21T13:50:05;11.90;99.90
14555;DHT22;7364;50.870;4.722;2024-02-21T13:52:37;11.90;99.90
14555;DHT22;7364;50.870;4.722;2024-02-21T13:55:06;12.00;99.90
14555;DHT22;7364;50.870;4.722;2024-02-21T13:57:34;11.80;99.90
14555;DHT22;7364;50.870;4.722;2024-02-21T14:00:02;11.70;99.90
14555;DHT22;7364;50.870;4.722;2024-02-21T14:02:30;11.50;99.90
14555;DHT22;7364;50.870;4.722;2024-02-21T14:04:58;11.40;99.90
14555;DHT22;7364;50.870;4.722;2024-02-21T14:07:25;11.50;99.90
14555;DHT22;7364;50.870;4.722;2024-02-21T14:09:54;11.60;99.90
14555;DHT22;7364;50.870;4.722;2024-02-21T14:12:22;11.50;99.90
14555;DHT22;7364;50.870;4.722;2024-02-21T14:14:49;11.40;99.90
14555;DHT22;7364;50.870;4.722;2024-02-21T14:17:17;11.40;99.90
14555;DHT22;7364;50.870;4.722;2024-02-21T14:19:45;11.40;99.90
14555;DHT22;7364;50.870;4.722;2024-02-21T14:22:13;11.50;99.90
14555;DHT22;7364;50.870;4.722;2024-02-21T14:24:40;11.40;99.90
14555;DHT22;7364;50.870;4.722;2024-02-21T14:27:09;11.40;99.90
14555;DHT22;7364;50.870;4.722;2024-02-21T14:29:36;11.40;99.90
14555;DHT22;7364;50.870;4.722;2024-02-21T14:32:03;11.30;99.90
14555;DHT22;7364;50.870;4.722;2024-02-21T14:34:31;11.20;99.90
14555;DHT22;7364;50.870;4.722;2024-02-21T14:36:59;11.20;99.90
14555;DHT22;7364;50.870;4.722;2024-02-21T14:39:26;11.30;99.90
14555;DHT22;7364;50.870;4.722;2024-02-21T14:41:54;11.20;99.90
14555;DHT22;7364;50.870;4.722;2024-02-21T14:44:23;11.10;99.90
14555;DHT22;7364;50.870;4.722;2024-02-21T14:46:50;11.00;99.90
14555;DHT22;7364;50.870;4.722;2024-02-21T14:49:18;10.90;99.90
14555;DHT22;7364;50.870;4.722;2024-02-21T14:51:45;10.90;99.90
14555;DHT22;7364;50.870;4.722;2024-02-21T14:54:13;10.80;99.90
14555;DHT22;7364;50.870;4.722;2024-02-21T14:56:40;10.70;99.90
14555;DHT22;7364;50.870;4.722;2024-02-21T14:59:07;10.60;99.90
14555;DHT22;7364;50.870;4.722;2024-02-21T15:01:39;10.50;99.90
14555;DHT22;7364;50.870;4.722;2024-02-21T15:04:06;10.50;99.90
14555;DHT22;7364;50.870;4.722;2024-02-21T15:06:33;10.50;99.90
14555;DHT22;7364;50.870;4.722;2024-02-21T15:09:02;10.50;99.90
14555;DHT22;7364;50.870;4.722;2024-02-21T15:11:29;10.60;99.90
14555;DHT22;7364;50.870;4.722;2024-02-21T15:13:56;10.40;99.90
14555;DHT22;7364;50.870;4.722;2024-02-21T15:16:23;10.40;99.90
14555;DHT22;7364;50.870;4.722;2024-02-21T15:18:52;10.40;99.90
14555;DHT22;7364;50.870;4.722;2024-02-21T15:21:19;10.40;99.90
14555;DHT22;7364;50.870;4.722;2024-02-21T15:23:46;10.40;99.90
14555;DHT22;7364;50.870;4.722;2024-02-21T15:26:14;10.40;99.90
14555;DHT22;7364;50.870;4.722;2024-02-21T15:28:41;10.30;99.90
14555;DHT22;7364;50.870;4.722;2024-02-21T15:31:08;10.30;99.90
14555;DHT22;7364;50.870;4.722;2024-02-21T15:33:35;10.30;99.90
14555;DHT22;7364;50.870;4.722;2024-02-21T15:36:06;10.30;99.90
14555;DHT22;7364;50.870;4.722;2024-02-21T15:38:34;10.20;99.90
14555;DHT22;7364;50.870;4.722;2024-02-21T15:41:01;10.20;99.90
14555;DHT22;7364;50.870;4.722;2024-02-21T15:43:29;10.10;99.90
14555;DHT22;7364;50.870;4.722;2024-02-21T15:45:56;10.10;99.90
14555;DHT22;7364;50.870;4.722;2024-02-21T15:48:23;10.10;99.90
14555;DHT22;7364;50.870;4.722;2024-02-21T15:50:51;10.10;99.90
14555;DHT22;7364;50.870;4.722;2024-02-21T15:53:19;10.10;99.90
14555;DHT22;7364;50.870;4.722;2024-02-21T15:55:48;10.00;99.90